sensor_id;sensor_type;location;lat;lon;timestamp;temperature;humidity
77056;SHT30;67471;44.918;8.614;2024-01-16T00:00:26;4.14;76.30
77056;SHT30;67471;44.918;8.614;2024-01-16T00:03:30;3.94;77.03
77056;SHT30;67471;44.918;8.614;2024-01-16T00:06:38;3.95;76.76
77056;SHT30;67471;44.918;8.614;2024-01-16T00:09:42;3.95;76.77
77056;SHT30;67471;44.918;8.614;2024-01-16T00:12:46;3.74;77.81
77056;SHT30;67471;44.918;8.614;2024-01-16T00:15:50;3.90;77.42
77056;SHT30;67471;44.918;8.614;2024-01-16T00:18:54;3.60;78.23
77056;SHT30;67471;44.918;8.614;2024-01-16T00:21:58;3.55;79.40
77056;SHT30;67471;44.918;8.614;2024-01-16T00:25:04;3.52;79.61
77056;SHT30;67471;44.918;8.614;2024-01-16T00:28:08;3.60;79.33
77056;SHT30;67471;44.918;8.614;2024-01-16T00:31:11;3.60;79.83
77056;SHT30;67471;44.918;8.614;2024-01-16T00:34:15;3.64;79.35
77056;SHT30;67471;44.918;8.614;2024-01-16T00:37:19;3.67;79.26
77056;SHT30;67471;44.918;8.614;2024-01-16T00:40:24;3.76;78.97
77056;SHT30;67471;44.918;8.614;2024-01-16T00:43:27;3.73;78.52
77056;SHT30;67471;44.918;8.614;2024-01-16T00:46:31;3.56;78.17
77056;SHT30;67471;44.918;8.614;2024-01-16T00:49:35;3.35;78.83
77056;SHT30;67471;44.918;8.614;2024-01-16T00:52:39;3.30;79.23
77056;SHT30;67471;44.918;8.614;2024-01-16T00:55:43;3.36;79.66
77056;SHT30;67471;44.918;8.614;2024-01-16T00:58:46;3.40;79.30
77056;SHT30;67471;44.918;8.614;2024-01-16T01:01:50;3.55;78.80
77056;SHT30;67471;44.918;8.614;2024-01-16T01:04:54;3.46;79.57
77056;SHT30;67471;44.918;8.614;2024-01-16T01:07:58;3.52;79.71
77056;SHT30;67471;44.918;8.614;2024-01-16T01:11:02;3.56;79.91
77056;SHT30;67471;44.918;8.614;2024-01-16T01:14:06;3.59;80.08
77056;SHT30;67471;44.918;8.614;2024-01-16T01:17:10;3.71;79.70
77056;SHT30;67471;44.918;8.614;2024-01-16T01:20:14;3.57;79.65
77056;SHT30;67471;44.918;8.614;2024-01-16T01:23:18;3.49;80.67
77056;SHT30;67471;44.918;8.614;2024-01-16T01:26:22;3.59;79.70
77056;SHT30;67471;44.918;8.614;2024-01-16T01:29:25;3.67;79.14
77056;SHT30;67471;44.918;8.614;2024-01-16T01:32:29;3.70;79.13
77056;SHT30;67471;44.918;8.614;2024-01-16T01:35:33;3.67;78.89
77056;SHT30;67471;44.918;8.614;2024-01-16T01:38:37;3.71;78.44
77056;SHT30;67471;44.918;8.614;2024-01-16T01:41:41;3.76;78.00
77056;SHT30;67471;44.918;8.614;2024-01-16T01:44:45;3.76;77.37
77056;SHT30;67471;44.918;8.614;2024-01-16T01:47:49;3.57;77.63
77056;SHT30;67471;44.918;8.614;2024-01-16T01:50:52;3.43;78.63
77056;SHT30;67471;44.918;8.614;2024-01-16T01:53:56;3.19;78.52
77056;SHT30;67471;44.918;8.614;2024-01-16T01:57:02;3.30;78.62
77056;SHT30;67471;44.918;8.614;2024-01-16T02:00:06;3.19;78.71
77056;SHT30;67471;44.918;8.614;2024-01-16T02:03:16;2.98;79.45
77056;SHT30;67471;44.918;8.614;2024-01-16T02:06:20;3.11;79.20
77056;SHT30;67471;44.918;8.614;2024-01-16T02:09:23;2.99;79.52
77056;SHT30;67471;44.918;8.614;2024-01-16T02:12:27;2.94;79.26
77056;SHT30;67471;44.918;8.614;2024-01-16T02:15:31;2.99;78.22
77056;SHT30;67471;44.918;8.614;2024-01-16T02:18:35;2.97;78.63
77056;SHT30;67471;44.918;8.614;2024-01-16T02:21:42;2.87;78.51
77056;SHT30;67471;44.918;8.614;2024-01-16T02:24:47;2.81;78.85
77056;SHT30;67471;44.918;8.614;2024-01-16T02:27:51;2.73;78.76
77056;SHT30;67471;44.918;8.614;2024-01-16T02:30:55;2.83;77.78
77056;SHT30;67471;44.918;8.614;2024-01-16T02:33:59;2.76;78.11
77056;SHT30;67471;44.918;8.614;2024-01-16T02:37:03;2.64;78.30
77056;SHT30;67471;44.918;8.614;2024-01-16T02:40:07;2.40;77.99
77056;SHT30;67471;44.918;8.614;2024-01-16T02:43:12;2.41;77.86
77056;SHT30;67471;44.918;8.614;2024-01-16T02:46:15;2.39;78.00
77056;SHT30;67471;44.918;8.614;2024-01-16T02:49:19;2.34;78.48
77056;SHT30;67471;44.918;8.614;2024-01-16T02:52:23;2.37;79.30
77056;SHT30;67471;44.918;8.614;2024-01-16T02:55:27;2.36;79.93
77056;SHT30;67471;44.918;8.614;2024-01-16T02:58:30;2.33;80.22
77056;SHT30;67471;44.918;8.614;2024-01-16T03:01:34;2.40;80.96
77056;SHT30;67471;44.918;8.614;2024-01-16T03:04:38;2.34;82.08
77056;SHT30;67471;44.918;8.614;2024-01-16T03:07:41;2.37;82.36
77056;SHT30;67471;44.918;8.614;2024-01-16T03:10:45;2.47;82.17
77056;SHT30;67471;44.918;8.614;2024-01-16T03:13:49;2.40;82.45
77056;SHT30;67471;44.918;8.614;2024-01-16T03:16:55;2.23;83.09
77056;SHT30;67471;44.918;8.614;2024-01-16T03:19:59;2.33;82.68
77056;SHT30;67471;44.918;8.614;2024-01-16T03:23:03;2.32;82.23
77056;SHT30;67471;44.918;8.614;2024-01-16T03:26:12;2.48;81.05
77056;SHT30;67471;44.918;8.614;2024-01-16T03:29:15;2.50;80.50
77056;SHT30;67471;44.918;8.614;2024-01-16T03:32:19;2.41;80.48
77056;SHT30;67471;44.918;8.614;2024-01-16T03:35:23;2.33;80.79
77056;SHT30;67471;44.918;8.614;2024-01-16T03:38:27;2.47;79.72
77056;SHT30;67471;44.918;8.614;2024-01-16T03:41:31;2.46;80.18
77056;SHT30;67471;44.918;8.614;2024-01-16T03:44:38;2.44;79.22
77056;SHT30;67471;44.918;8.614;2024-01-16T03:47:42;2.36;79.52
77056;SHT30;67471;44.918;8.614;2024-01-16T03:50:46;2.43;78.83
77056;SHT30;67471;44.918;8.614;2024-01-16T03:53:51;2.41;79.10
77056;SHT30;67471;44.918;8.614;2024-01-16T03:56:54;2.44;78.49
77056;SHT30;67471;44.918;8.614;2024-01-16T03:59:59;2.39;78.93
77056;SHT30;67471;44.918;8.614;2024-01-16T04:03:03;2.32;79.68
77056;SHT30;67471;44.918;8.614;2024-01-16T04:06:19;2.47;79.37
77056;SHT30;67471;44.918;8.614;2024-01-16T04:09:22;2.40;79.64
77056;SHT30;67471;44.918;8.614;2024-01-16T04:12:26;2.20;80.88
77056;SHT30;67471;44.918;8.614;2024-01-16T04:15:30;2.23;81.23
77056;SHT30;67471;44.918;8.614;2024-01-16T04:18:38;2.37;80.72
77056;SHT30;67471;44.918;8.614;2024-01-16T04:21:42;2.26;81.00
77056;SHT30;67471;44.918;8.614;2024-01-16T04:24:46;2.15;81.53
77056;SHT30;67471;44.918;8.614;2024-01-16T04:27:51;2.15;81.43
77056;SHT30;67471;44.918;8.614;2024-01-16T04:30:54;2.10;81.76
77056;SHT30;67471;44.918;8.614;2024-01-16T04:33:58;2.16;81.43
77056;SHT30;67471;44.918;8.614;2024-01-16T04:37:02;2.13;81.95
77056;SHT30;67471;44.918;8.614;2024-01-16T04:40:07;2.09;81.93
77056;SHT30;67471;44.918;8.614;2024-01-16T04:43:10;2.10;82.58
77056;SHT30;67471;44.918;8.614;2024-01-16T04:46:14;2.13;82.02
77056;SHT30;67471;44.918;8.614;2024-01-16T04:49:18;2.15;82.42
77056;SHT30;67471;44.918;8.614;2024-01-16T04:52:22;2.12;82.55
77056;SHT30;67471;44.918;8.614;2024-01-16T04:55:27;2.13;82.79
77056;SHT30;67471;44.918;8.614;2024-01-16T04:58:30;2.16;82.92
77056;SHT30;67471;44.918;8.614;2024-01-16T05:01:34;2.29;82.23
77056;SHT30;67471;44.918;8.614;2024-01-16T05:04:38;2.27;82.18
77056;SHT30;67471;44.918;8.614;2024-01-16T05:07:42;2.30;81.77
77056;SHT30;67471;44.918;8.614;2024-01-16T05:10:46;2.40;81.87
77056;SHT30;67471;44.918;8.614;2024-01-16T05:13:50;2.36;82.25
77056;SHT30;67471;44.918;8.614;2024-01-16T05:16:53;2.33;82.80
77056;SHT30;67471;44.918;8.614;2024-01-16T05:19:57;2.30;82.15
77056;SHT30;67471;44.918;8.614;2024-01-16T05:23:01;2.46;82.19
77056;SHT30;67471;44.918;8.614;2024-01-16T05:26:05;2.40;82.40
77056;SHT30;67471;44.918;8.614;2024-01-16T05:29:09;2.50;82.46
77056;SHT30;67471;44.918;8.614;2024-01-16T05:32:13;2.44;83.18
77056;SHT30;67471;44.918;8.614;2024-01-16T05:35:17;2.53;83.17
77056;SHT30;67471;44.918;8.614;2024-01-16T05:38:21;2.51;83.23
77056;SHT30;67471;44.918;8.614;2024-01-16T05:41:25;2.44;84.39
77056;SHT30;67471;44.918;8.614;2024-01-16T05:44:28;2.46;84.43
77056;SHT30;67471;44.918;8.614;2024-01-16T05:47:32;2.48;85.16
77056;SHT30;67471;44.918;8.614;2024-01-16T05:50:36;2.56;85.08
77056;SHT30;67471;44.918;8.614;2024-01-16T05:53:40;2.53;85.19
77056;SHT30;67471;44.918;8.614;2024-01-16T05:56:44;2.58;85.43
77056;SHT30;67471;44.918;8.614;2024-01-16T05:59:47;2.65;85.00
77056;SHT30;67471;44.918;8.614;2024-01-16T06:02:51;2.68;85.09
77056;SHT30;67471;44.918;8.614;2024-01-16T06:05:55;2.77;84.57
77056;SHT30;67471;44.918;8.614;2024-01-16T06:08:59;2.78;84.82
77056;SHT30;67471;44.918;8.614;2024-01-16T06:12:08;2.80;84.57
77056;SHT30;67471;44.918;8.614;2024-01-16T06:15:12;2.71;85.01
77056;SHT30;67471;44.918;8.614;2024-01-16T06:18:15;2.68;85.07
77056;SHT30;67471;44.918;8.614;2024-01-16T06:21:19;2.71;85.33
77056;SHT30;67471;44.918;8.614;2024-01-16T06:24:23;2.54;85.59
77056;SHT30;67471;44.918;8.614;2024-01-16T06:27:27;2.65;85.25
77056;SHT30;67471;44.918;8.614;2024-01-16T06:30:31;2.76;85.34
77056;SHT30;67471;44.918;8.614;2024-01-16T06:33:35;2.85;84.28
77056;SHT30;67471;44.918;8.614;2024-01-16T06:36:38;2.62;85.22
77056;SHT30;67471;44.918;8.614;2024-01-16T06:39:42;2.81;84.00
77056;SHT30;67471;44.918;8.614;2024-01-16T06:42:46;2.78;84.15
77056;SHT30;67471;44.918;8.614;2024-01-16T06:45:50;2.81;84.47
77056;SHT30;67471;44.918;8.614;2024-01-16T06:48:54;2.87;83.61
77056;SHT30;67471;44.918;8.614;2024-01-16T06:51:58;2.89;83.88
77056;SHT30;67471;44.918;8.614;2024-01-16T06:55:02;2.94;83.83
77056;SHT30;67471;44.918;8.614;2024-01-16T06:58:06;2.92;83.88
77056;SHT30;67471;44.918;8.614;2024-01-16T07:01:10;3.04;83.37
77056;SHT30;67471;44.918;8.614;2024-01-16T07:04:14;2.97;83.13
77056;SHT30;67471;44.918;8.614;2024-01-16T07:07:18;2.95;83.04
77056;SHT30;67471;44.918;8.614;2024-01-16T07:10:21;2.97;83.53
77056;SHT30;67471;44.918;8.614;2024-01-16T07:13:26;2.87;84.04
77056;SHT30;67471;44.918;8.614;2024-01-16T07:16:30;2.97;83.12
77056;SHT30;67471;44.918;8.614;2024-01-16T07:19:34;3.02;82.99
77056;SHT30;67471;44.918;8.614;2024-01-16T07:22:38;2.98;82.37
77056;SHT30;67471;44.918;8.614;2024-01-16T07:25:44;2.81;83.27
77056;SHT30;67471;44.918;8.614;2024-01-16T07:28:47;2.91;83.00
77056;SHT30;67471;44.918;8.614;2024-01-16T07:31:51;3.01;82.62
77056;SHT30;67471;44.918;8.614;2024-01-16T07:34:56;2.89;82.75
77056;SHT30;67471;44.918;8.614;2024-01-16T07:38:00;2.94;83.19
77056;SHT30;67471;44.918;8.614;2024-01-16T07:41:04;2.92;82.41
77056;SHT30;67471;44.918;8.614;2024-01-16T07:44:08;2.83;82.80
77056;SHT30;67471;44.918;8.614;2024-01-16T07:47:12;2.88;82.84
77056;SHT30;67471;44.918;8.614;2024-01-16T07:50:16;2.92;82.72
77056;SHT30;67471;44.918;8.614;2024-01-16T07:53:20;2.85;82.73
77056;SHT30;67471;44.918;8.614;2024-01-16T07:56:24;2.80;83.50
77056;SHT30;67471;44.918;8.614;2024-01-16T07:59:28;2.92;82.67
77056;SHT30;67471;44.918;8.614;2024-01-16T08:02:32;2.89;82.44
77056;SHT30;67471;44.918;8.614;2024-01-16T08:05:37;2.92;82.41
77056;SHT30;67471;44.918;8.614;2024-01-16T08:08:41;2.91;82.76
77056;SHT30;67471;44.918;8.614;2024-01-16T08:11:45;2.95;82.85
77056;SHT30;67471;44.918;8.614;2024-01-16T08:14:49;2.98;83.32
77056;SHT30;67471;44.918;8.614;2024-01-16T08:17:52;2.99;83.31
77056;SHT30;67471;44.918;8.614;2024-01-16T08:20:57;3.05;82.83
77056;SHT30;67471;44.918;8.614;2024-01-16T08:24:00;3.13;82.37
77056;SHT30;67471;44.918;8.614;2024-01-16T08:27:04;3.11;82.35
77056;SHT30;67471;44.918;8.614;2024-01-16T08:30:08;3.04;82.67
77056;SHT30;67471;44.918;8.614;2024-01-16T08:33:13;2.95;83.23
77056;SHT30;67471;44.918;8.614;2024-01-16T08:36:17;2.99;83.65
77056;SHT30;67471;44.918;8.614;2024-01-16T08:39:21;3.05;83.67
77056;SHT30;67471;44.918;8.614;2024-01-16T08:42:25;3.07;83.50
77056;SHT30;67471;44.918;8.614;2024-01-16T08:45:29;3.15;83.03
77056;SHT30;67471;44.918;8.614;2024-01-16T08:48:32;3.12;83.07
77056;SHT30;67471;44.918;8.614;2024-01-16T08:51:36;3.09;83.36
77056;SHT30;67471;44.918;8.614;2024-01-16T08:54:40;3.12;83.36
77056;SHT30;67471;44.918;8.614;2024-01-16T08:57:44;3.07;83.72
77056;SHT30;67471;44.918;8.614;2024-01-16T09:00:48;3.02;83.54
77056;SHT30;67471;44.918;8.614;2024-01-16T09:03:51;3.11;83.61
77056;SHT30;67471;44.918;8.614;2024-01-16T09:06:55;3.16;83.63
77056;SHT30;67471;44.918;8.614;2024-01-16T09:09:59;3.11;84.08
77056;SHT30;67471;44.918;8.614;2024-01-16T09:13:02;3.16;84.36
77056;SHT30;67471;44.918;8.614;2024-01-16T09:16:06;3.19;84.22
77056;SHT30;67471;44.918;8.614;2024-01-16T09:19:10;3.13;84.29
77056;SHT30;67471;44.918;8.614;2024-01-16T09:22:14;3.23;84.22
77056;SHT30;67471;44.918;8.614;2024-01-16T09:25:19;3.30;84.26
77056;SHT30;67471;44.918;8.614;2024-01-16T09:28:24;3.25;84.91
77056;SHT30;67471;44.918;8.614;2024-01-16T09:31:28;3.39;84.02
77056;SHT30;67471;44.918;8.614;2024-01-16T09:34:31;3.35;84.15
77056;SHT30;67471;44.918;8.614;2024-01-16T09:37:35;3.35;84.27
77056;SHT30;67471;44.918;8.614;2024-01-16T09:40:39;3.23;84.75
77056;SHT30;67471;44.918;8.614;2024-01-16T09:43:44;3.18;84.65
77056;SHT30;67471;44.918;8.614;2024-01-16T09:46:50;3.18;84.95
77056;SHT30;67471;44.918;8.614;2024-01-16T09:49:54;3.11;85.02
77056;SHT30;67471;44.918;8.614;2024-01-16T09:52:59;3.23;85.29
77056;SHT30;67471;44.918;8.614;2024-01-16T09:56:04;3.29;85.67
77056;SHT30;67471;44.918;8.614;2024-01-16T09:59:09;3.28;85.66
77056;SHT30;67471;44.918;8.614;2024-01-16T10:02:16;3.25;85.58
77056;SHT30;67471;44.918;8.614;2024-01-16T10:05:20;3.16;86.01
77056;SHT30;67471;44.918;8.614;2024-01-16T10:08:24;3.29;85.75
77056;SHT30;67471;44.918;8.614;2024-01-16T10:11:29;3.23;86.08
77056;SHT30;67471;44.918;8.614;2024-01-16T10:14:33;3.26;85.83
77056;SHT30;67471;44.918;8.614;2024-01-16T10:17:38;3.33;85.78
77056;SHT30;67471;44.918;8.614;2024-01-16T10:20:42;3.29;85.53
77056;SHT30;67471;44.918;8.614;2024-01-16T10:23:46;3.30;85.63
77056;SHT30;67471;44.918;8.614;2024-01-16T10:26:58;3.42;84.91
77056;SHT30;67471;44.918;8.614;2024-01-16T10:30:03;3.43;85.35
77056;SHT30;67471;44.918;8.614;2024-01-16T10:33:15;3.48;85.24
77056;SHT30;67471;44.918;8.614;2024-01-16T10:36:19;3.55;85.04
77056;SHT30;67471;44.918;8.614;2024-01-16T10:39:24;3.56;84.78
77056;SHT30;67471;44.918;8.614;2024-01-16T10:42:28;3.60;85.04
77056;SHT30;67471;44.918;8.614;2024-01-16T10:45:34;3.43;85.45
77056;SHT30;67471;44.918;8.614;2024-01-16T10:48:40;3.40;85.37
77056;SHT30;67471;44.918;8.614;2024-01-16T10:51:44;3.42;85.62
77056;SHT30;67471;44.918;8.614;2024-01-16T10:54:49;3.44;85.61
77056;SHT30;67471;44.918;8.614;2024-01-16T10:57:55;3.52;84.91
77056;SHT30;67471;44.918;8.614;2024-01-16T11:01:03;3.57;84.90
77056;SHT30;67471;44.918;8.614;2024-01-16T11:04:08;3.69;84.58
77056;SHT30;67471;44.918;8.614;2024-01-16T11:07:13;3.57;84.86
77056;SHT30;67471;44.918;8.614;2024-01-16T11:10:18;3.52;84.54
77056;SHT30;67471;44.918;8.614;2024-01-16T11:13:22;3.57;84.74
77056;SHT30;67471;44.918;8.614;2024-01-16T11:16:26;3.63;85.07
77056;SHT30;67471;44.918;8.614;2024-01-16T11:19:32;3.57;85.13
77056;SHT30;67471;44.918;8.614;2024-01-16T11:22:38;3.70;84.75
77056;SHT30;67471;44.918;8.614;2024-01-16T11:25:43;3.56;85.09
77056;SHT30;67471;44.918;8.614;2024-01-16T11:28:47;3.59;85.54
77056;SHT30;67471;44.918;8.614;2024-01-16T11:31:51;3.60;85.29
77056;SHT30;67471;44.918;8.614;2024-01-16T11:34:54;3.66;85.51
77056;SHT30;67471;44.918;8.614;2024-01-16T11:38:16;3.64;85.29
77056;SHT30;67471;44.918;8.614;2024-01-16T11:41:49;3.67;85.54
77056;SHT30;67471;44.918;8.614;2024-01-16T11:44:54;3.63;85.54
77056;SHT30;67471;44.918;8.614;2024-01-16T11:48:13;3.76;85.26
77056;SHT30;67471;44.918;8.614;2024-01-16T11:51:24;3.79;85.45
77056;SHT30;67471;44.918;8.614;2024-01-16T11:54:28;3.79;85.64
77056;SHT30;67471;44.918;8.614;2024-01-16T11:58:00;3.94;85.30
77056;SHT30;67471;44.918;8.614;2024-01-16T12:01:09;3.91;85.36
77056;SHT30;67471;44.918;8.614;2024-01-16T12:04:15;4.00;85.33
77056;SHT30;67471;44.918;8.614;2024-01-16T12:07:22;3.95;85.76
77056;SHT30;67471;44.918;8.614;2024-01-16T12:10:26;4.08;84.97
77056;SHT30;67471;44.918;8.614;2024-01-16T12:13:30;4.07;84.95
77056;SHT30;67471;44.918;8.614;2024-01-16T12:16:34;4.10;85.19
77056;SHT30;67471;44.918;8.614;2024-01-16T12:19:38;4.17;84.47
77056;SHT30;67471;44.918;8.614;2024-01-16T12:22:45;4.08;84.68
77056;SHT30;67471;44.918;8.614;2024-01-16T12:25:55;3.95;85.16
77056;SHT30;67471;44.918;8.614;2024-01-16T12:29:03;4.07;85.10
77056;SHT30;67471;44.918;8.614;2024-01-16T12:32:08;4.22;84.41
77056;SHT30;67471;44.918;8.614;2024-01-16T12:35:19;4.19;84.80
77056;SHT30;67471;44.918;8.614;2024-01-16T12:38:23;4.14;84.70
77056;SHT30;67471;44.918;8.614;2024-01-16T12:41:35;4.12;85.40
77056;SHT30;67471;44.918;8.614;2024-01-16T12:44:40;4.24;84.65
77056;SHT30;67471;44.918;8.614;2024-01-16T12:47:44;4.25;84.46
77056;SHT30;67471;44.918;8.614;2024-01-16T12:50:48;4.25;84.83
77056;SHT30;67471;44.918;8.614;2024-01-16T12:53:52;4.29;84.66
77056;SHT30;67471;44.918;8.614;2024-01-16T12:56:58;4.39;84.62
77056;SHT30;67471;44.918;8.614;2024-01-16T13:00:21;4.44;84.25
77056;SHT30;67471;44.918;8.614;2024-01-16T13:03:25;4.46;84.12
77056;SHT30;67471;44.918;8.614;2024-01-16T13:06:31;4.42;83.56
77056;SHT30;67471;44.918;8.614;2024-01-16T13:09:35;4.39;84.24
77056;SHT30;67471;44.918;8.614;2024-01-16T13:12:40;4.50;83.61
77056;SHT30;67471;44.918;8.614;2024-01-16T13:15:45;4.46;83.89
77056;SHT30;67471;44.918;8.614;2024-01-16T13:19:00;4.41;84.47
77056;SHT30;67471;44.918;8.614;2024-01-16T13:22:04;4.39;84.78
77056;SHT30;67471;44.918;8.614;2024-01-16T13:25:08;4.48;84.95
77056;SHT30;67471;44.918;8.614;2024-01-16T13:28:15;4.24;85.61
77056;SHT30;67471;44.918;8.614;2024-01-16T13:31:19;4.37;85.17
77056;SHT30;67471;44.918;8.614;2024-01-16T13:34:23;4.37;85.09
77056;SHT30;67471;44.918;8.614;2024-01-16T13:37:27;4.38;85.12
77056;SHT30;67471;44.918;8.614;2024-01-16T13:40:31;4.27;85.44
77056;SHT30;67471;44.918;8.614;2024-01-16T13:43:35;4.39;85.10
77056;SHT30;67471;44.918;8.614;2024-01-16T13:46:38;4.50;84.47
77056;SHT30;67471;44.918;8.614;2024-01-16T13:49:42;4.52;84.42
77056;SHT30;67471;44.918;8.614;2024-01-16T13:52:47;4.56;84.45
77056;SHT30;67471;44.918;8.614;2024-01-16T13:55:50;4.42;84.76
77056;SHT30;67471;44.918;8.614;2024-01-16T13:58:54;4.42;85.24
77056;SHT30;67471;44.918;8.614;2024-01-16T14:01:58;4.48;84.73
77056;SHT30;67471;44.918;8.614;2024-01-16T14:05:02;4.48;85.04
77056;SHT30;67471;44.918;8.614;2024-01-16T14:08:06;4.59;84.72
77056;SHT30;67471;44.918;8.614;2024-01-16T14:11:11;4.56;84.69
77056;SHT30;67471;44.918;8.614;2024-01-16T14:14:15;4.62;84.54
77056;SHT30;67471;44.918;8.614;2024-01-16T14:17:18;4.70;84.17
77056;SHT30;67471;44.918;8.614;2024-01-16T14:20:24;4.59;83.66
77056;SHT30;67471;44.918;8.614;2024-01-16T14:23:30;4.56;84.48
77056;SHT30;67471;44.918;8.614;2024-01-16T14:26:33;4.60;84.38
77056;SHT30;67471;44.918;8.614;2024-01-16T14:29:38;4.62;84.23
77056;SHT30;67471;44.918;8.614;2024-01-16T14:32:44;4.68;84.41
77056;SHT30;67471;44.918;8.614;2024-01-16T14:35:47;4.60;84.27
77056;SHT30;67471;44.918;8.614;2024-01-16T14:38:52;4.77;83.81
77056;SHT30;67471;44.918;8.614;2024-01-16T14:41:56;4.87;83.09
77056;SHT30;67471;44.918;8.614;2024-01-16T14:45:02;4.84;83.27
77056;SHT30;67471;44.918;8.614;2024-01-16T14:48:05;4.84;83.76
77056;SHT30;67471;44.918;8.614;2024-01-16T14:51:09;4.89;83.31
77056;SHT30;67471;44.918;8.614;2024-01-16T14:54:13;4.86;83.07
77056;SHT30;67471;44.918;8.614;2024-01-16T14:57:18;4.86;82.91
77056;SHT30;67471;44.918;8.614;2024-01-16T15:00:21;4.91;82.76
77056;SHT30;67471;44.918;8.614;2024-01-16T15:03:30;4.94;82.87
77056;SHT30;67471;44.918;8.614;2024-01-16T15:06:34;5.01;82.62
77056;SHT30;67471;44.918;8.614;2024-01-16T15:09:38;5.03;82.61
77056;SHT30;67471;44.918;8.614;2024-01-16T15:12:44;5.06;82.52
77056;SHT30;67471;44.918;8.614;2024-01-16T15:15:48;5.09;82.84
77056;SHT30;67471;44.918;8.614;2024-01-16T15:18:51;5.16;82.32
77056;SHT30;67471;44.918;8.614;2024-01-16T15:21:55;5.20;82.19
77056;SHT30;67471;44.918;8.614;2024-01-16T15:24:59;5.14;82.75
77056;SHT30;67471;44.918;8.614;2024-01-16T15:28:03;5.24;82.40
77056;SHT30;67471;44.918;8.614;2024-01-16T15:31:06;5.23;82.13
77056;SHT30;67471;44.918;8.614;2024-01-16T15:34:10;5.26;82.05
77056;SHT30;67471;44.918;8.614;2024-01-16T15:37:14;5.24;81.86
77056;SHT30;67471;44.918;8.614;2024-01-16T15:40:18;5.18;82.04
77056;SHT30;67471;44.918;8.614;2024-01-16T15:43:22;5.06;82.20
77056;SHT30;67471;44.918;8.614;2024-01-16T15:46:26;5.17;82.12
77056;SHT30;67471;44.918;8.614;2024-01-16T15:49:30;5.10;81.95
77056;SHT30;67471;44.918;8.614;2024-01-16T15:52:38;5.16;81.95
77056;SHT30;67471;44.918;8.614;2024-01-16T15:55:42;5.21;82.08
77056;SHT30;67471;44.918;8.614;2024-01-16T15:58:46;5.26;82.05
77056;SHT30;67471;44.918;8.614;2024-01-16T16:01:50;5.27;81.87
77056;SHT30;67471;44.918;8.614;2024-01-16T16:04:56;5.34;81.93
77056;SHT30;67471;44.918;8.614;2024-01-16T16:08:00;5.35;81.93
77056;SHT30;67471;44.918;8.614;2024-01-16T16:11:04;5.26;82.33
77056;SHT30;67471;44.918;8.614;2024-01-16T16:14:08;5.28;82.28
77056;SHT30;67471;44.918;8.614;2024-01-16T16:17:12;5.31;82.15
77056;SHT30;67471;44.918;8.614;2024-01-16T16:20:16;5.30;82.12
77056;SHT30;67471;44.918;8.614;2024-01-16T16:23:20;5.28;82.38
77056;SHT30;67471;44.918;8.614;2024-01-16T16:26:38;5.37;82.18
77056;SHT30;67471;44.918;8.614;2024-01-16T16:29:43;5.38;82.06
77056;SHT30;67471;44.918;8.614;2024-01-16T16:32:47;5.34;82.24
77056;SHT30;67471;44.918;8.614;2024-01-16T16:35:51;5.31;82.68
77056;SHT30;67471;44.918;8.614;2024-01-16T16:38:55;5.37;82.20
77056;SHT30;67471;44.918;8.614;2024-01-16T16:41:59;5.41;82.20
77056;SHT30;67471;44.918;8.614;2024-01-16T16:45:03;5.45;82.15
77056;SHT30;67471;44.918;8.614;2024-01-16T16:48:07;5.45;82.22
77056;SHT30;67471;44.918;8.614;2024-01-16T16:51:18;5.48;82.33
77056;SHT30;67471;44.918;8.614;2024-01-16T16:54:22;5.38;82.17
77056;SHT30;67471;44.918;8.614;2024-01-16T16:57:26;5.48;81.90
77056;SHT30;67471;44.918;8.614;2024-01-16T17:00:29;5.37;82.43
77056;SHT30;67471;44.918;8.614;2024-01-16T17:03:33;5.44;82.35
77056;SHT30;67471;44.918;8.614;2024-01-16T17:06:37;5.44;82.16
77056;SHT30;67471;44.918;8.614;2024-01-16T17:09:42;5.37;82.12
77056;SHT30;67471;44.918;8.614;2024-01-16T17:12:47;5.20;82.85
77056;SHT30;67471;44.918;8.614;2024-01-16T17:15:51;5.23;82.82
77056;SHT30;67471;44.918;8.614;2024-01-16T17:18:55;5.06;83.51
77056;SHT30;67471;44.918;8.614;2024-01-16T17:21:58;5.21;83.29
77056;SHT30;67471;44.918;8.614;2024-01-16T17:25:02;5.18;83.37
77056;SHT30;67471;44.918;8.614;2024-01-16T17:28:06;5.27;83.15
77056;SHT30;67471;44.918;8.614;2024-01-16T17:31:09;5.30;82.98
77056;SHT30;67471;44.918;8.614;2024-01-16T17:34:13;5.34;82.96
77056;SHT30;67471;44.918;8.614;2024-01-16T17:37:18;5.38;82.98
77056;SHT30;67471;44.918;8.614;2024-01-16T17:40:22;5.44;82.82
77056;SHT30;67471;44.918;8.614;2024-01-16T17:43:25;5.34;83.09
77056;SHT30;67471;44.918;8.614;2024-01-16T17:46:29;5.42;82.83
77056;SHT30;67471;44.918;8.614;2024-01-16T17:49:33;5.35;82.81
77056;SHT30;67471;44.918;8.614;2024-01-16T17:52:38;5.47;82.62
77056;SHT30;67471;44.918;8.614;2024-01-16T17:55:42;5.47;82.56
77056;SHT30;67471;44.918;8.614;2024-01-16T17:58:45;5.49;82.47
77056;SHT30;67471;44.918;8.614;2024-01-16T18:01:50;5.47;82.36
77056;SHT30;67471;44.918;8.614;2024-01-16T18:04:53;5.35;82.64
77056;SHT30;67471;44.918;8.614;2024-01-16T18:07:59;5.34;82.84
77056;SHT30;67471;44.918;8.614;2024-01-16T18:11:03;5.37;82.80
77056;SHT30;67471;44.918;8.614;2024-01-16T18:14:07;5.47;82.47
77056;SHT30;67471;44.918;8.614;2024-01-16T18:17:14;5.44;82.48
77056;SHT30;67471;44.918;8.614;2024-01-16T18:20:18;5.30;83.02
77056;SHT30;67471;44.918;8.614;2024-01-16T18:23:24;5.37;82.74
77056;SHT30;67471;44.918;8.614;2024-01-16T18:26:29;5.41;82.57
77056;SHT30;67471;44.918;8.614;2024-01-16T18:29:34;5.42;82.52
77056;SHT30;67471;44.918;8.614;2024-01-16T18:32:38;5.45;82.47
77056;SHT30;67471;44.918;8.614;2024-01-16T18:35:42;5.47;82.49
77056;SHT30;67471;44.918;8.614;2024-01-16T18:38:46;5.44;82.20
77056;SHT30;67471;44.918;8.614;2024-01-16T18:41:50;5.47;82.17
77056;SHT30;67471;44.918;8.614;2024-01-16T18:44:54;5.56;82.35
77056;SHT30;67471;44.918;8.614;2024-01-16T18:47:58;5.56;82.36
77056;SHT30;67471;44.918;8.614;2024-01-16T18:51:02;5.65;81.93
77056;SHT30;67471;44.918;8.614;2024-01-16T18:54:07;5.72;82.00
77056;SHT30;67471;44.918;8.614;2024-01-16T18:57:12;5.71;82.03
77056;SHT30;67471;44.918;8.614;2024-01-16T19:00:17;5.71;82.23
77056;SHT30;67471;44.918;8.614;2024-01-16T19:03:25;5.65;82.38
77056;SHT30;67471;44.918;8.614;2024-01-16T19:06:29;5.68;82.14
77056;SHT30;67471;44.918;8.614;2024-01-16T19:09:33;5.61;82.45
77056;SHT30;67471;44.918;8.614;2024-01-16T19:12:44;5.61;82.66
77056;SHT30;67471;44.918;8.614;2024-01-16T19:15:51;5.59;82.21
77056;SHT30;67471;44.918;8.614;2024-01-16T19:18:55;5.56;82.27
77056;SHT30;67471;44.918;8.614;2024-01-16T19:22:00;5.59;82.20
77056;SHT30;67471;44.918;8.614;2024-01-16T19:25:04;5.58;82.18
77056;SHT30;67471;44.918;8.614;2024-01-16T19:28:08;5.54;82.22
77056;SHT30;67471;44.918;8.614;2024-01-16T19:31:12;5.59;81.93
77056;SHT30;67471;44.918;8.614;2024-01-16T19:34:16;5.63;81.81
77056;SHT30;67471;44.918;8.614;2024-01-16T19:37:20;5.62;81.77
77056;SHT30;67471;44.918;8.614;2024-01-16T19:40:23;5.52;81.86
77056;SHT30;67471;44.918;8.614;2024-01-16T19:43:27;5.72;81.60